createdAt,value
2023-01-19T00:00:12.864Z,96.64
2023-01-19T00:01:12.852Z,97.17
2023-01-19T00:02:12.829Z,98.01
2023-01-19T00:03:12.893Z,97.49
2023-01-19T00:04:12.797Z,97.59
2023-01-19T00:05:12.780Z,97.49
2023-01-19T00:06:12.897Z,97.17
2023-01-19T00:07:12.763Z,97.06
2023-01-19T00:08:12.801Z,97.31
2023-01-19T00:09:12.754Z,97.21
2023-01-19T00:10:12.760Z,97.31
2023-01-19T00:11:12.742Z,97.21
2023-01-19T00:12:12.725Z,97.21
2023-01-19T00:13:12.795Z,97.17
2023-01-19T00:14:12.706Z,97.53
2023-01-19T00:15:12.747Z,97.42
2023-01-19T00:16:12.732Z,97.63
2023-01-19T00:17:12.725Z,97.80
2023-01-19T00:18:12.722Z,97.80
2023-01-19T00:19:12.753Z,97.59
2023-01-19T00:20:12.728Z,97.80
2023-01-19T00:21:12.666Z,97.44
2023-01-19T00:22:12.653Z,97.69
2023-01-19T00:23:12.664Z,97.91
2023-01-19T00:24:12.643Z,97.69
2023-01-19T00:25:12.623Z,97.59
2023-01-19T00:26:12.613Z,97.69
2023-01-19T00:27:12.620Z,97.59
2023-01-19T00:28:12.650Z,97.49
2023-01-19T00:29:12.593Z,97.69
2023-01-19T00:30:12.581Z,97.97
2023-01-19T00:31:12.639Z,98.60
2023-01-19T00:32:12.622Z,98.71
2023-01-19T00:33:12.634Z,99.13
2023-01-19T00:34:12.565Z,98.92
2023-01-19T00:35:12.593Z,98.81
2023-01-19T00:36:12.571Z,98.87
2023-01-19T00:37:12.700Z,99.08
2023-01-19T00:38:12.592Z,98.77
2023-01-19T00:39:12.529Z,98.98
2023-01-19T00:40:12.551Z,98.83
2023-01-19T00:41:12.548Z,99.04
2023-01-19T00:42:12.546Z,98.45
2023-01-19T00:43:12.542Z,99.04
2023-01-19T00:44:12.529Z,98.51
2023-01-19T00:45:12.524Z,98.72
2023-01-19T00:46:12.533Z,98.61
2023-01-19T00:47:12.534Z,98.41
2023-01-19T00:48:12.487Z,98.61
2023-01-19T00:49:12.484Z,98.93
2023-01-19T00:50:12.461Z,98.79
2023-01-19T00:51:12.468Z,98.57
2023-01-19T00:52:12.438Z,98.57
2023-01-19T00:53:12.452Z,98.36
2023-01-19T00:54:12.450Z,98.15
2023-01-19T00:55:12.484Z,98.57
2023-01-19T00:56:12.427Z,98.00
2023-01-19T00:57:12.478Z,98.00
2023-01-19T00:58:12.400Z,98.21
2023-01-19T00:59:12.430Z,98.21
2023-01-19T01:00:12.390Z,98.07
2023-01-19T01:01:12.499Z,97.96
2023-01-19T01:02:12.560Z,98.07
2023-01-19T01:03:12.470Z,97.33
2023-01-19T01:04:12.443Z,97.11
2023-01-19T01:05:12.389Z,96.86
2023-01-19T01:06:12.416Z,96.86
2023-01-19T01:07:12.345Z,97.01
2023-01-19T01:08:12.337Z,96.27
2023-01-19T01:09:12.411Z,96.12
2023-01-19T01:10:12.304Z,96.23
2023-01-19T01:11:12.317Z,96.33
2023-01-19T01:12:12.287Z,96.65
2023-01-19T01:13:20.499Z,96.59
2023-01-19T01:14:13.326Z,96.69
2023-01-19T01:15:13.325Z,96.69
2023-01-19T01:16:12.321Z,96.44
2023-01-19T01:17:12.279Z,96.65
2023-01-19T01:18:12.305Z,96.69
2023-01-19T01:19:12.270Z,96.23
2023-01-19T01:20:12.247Z,95.91
2023-01-19T01:21:12.242Z,95.91
2023-01-19T01:22:12.220Z,95.91
2023-01-19T01:23:12.232Z,95.49
2023-01-19T01:24:12.236Z,95.70
2023-01-19T01:25:12.202Z,95.49
2023-01-19T01:26:12.233Z,95.60
2023-01-19T01:27:12.206Z,95.60
2023-01-19T01:28:12.204Z,95.39
2023-01-19T01:29:12.173Z,95.49
2023-01-19T01:30:12.199Z,95.28
2023-01-19T01:31:12.236Z,95.28
2023-01-19T01:32:12.166Z,95.18
2023-01-19T01:33:12.152Z,95.39
2023-01-19T01:34:12.153Z,95.28
2023-01-19T01:35:12.173Z,95.28
2023-01-19T01:36:12.195Z,95.43
2023-01-19T01:37:12.131Z,94.86
2023-01-19T01:38:12.129Z,95.01
2023-01-19T01:39:12.104Z,94.96
2023-01-19T01:40:12.129Z,94.96
2023-01-19T01:41:12.082Z,94.90
2023-01-19T01:42:12.119Z,95.22
2023-01-19T01:43:12.072Z,95.32
2023-01-19T01:44:12.095Z,95.22
2023-01-19T01:45:12.108Z,95.11
2023-01-19T01:46:12.075Z,95.43
2023-01-19T01:47:12.078Z,95.53
2023-01-19T01:48:12.049Z,95.22
2023-01-19T01:49:12.044Z,95.32
2023-01-19T01:50:12.055Z,95.32
2023-01-19T01:51:12.017Z,95.43
2023-01-19T01:52:12.044Z,95.43
2023-01-19T01:53:12.365Z,95.43
2023-01-19T01:54:12.049Z,95.43
2023-01-19T01:55:12.053Z,95.68
2023-01-19T01:56:11.992Z,95.53
2023-01-19T01:57:11.991Z,95.64
2023-01-19T01:58:11.984Z,95.53
2023-01-19T01:59:11.969Z,95.64
2023-01-19T02:00:11.980Z,95.53
2023-01-19T02:01:12.041Z,95.15
2023-01-19T02:02:11.937Z,95.15
2023-01-19T02:03:11.972Z,95.47
2023-01-19T02:04:11.908Z,95.68
2023-01-19T02:05:11.910Z,96.04
2023-01-19T02:06:11.935Z,95.94
2023-01-19T02:07:11.931Z,96.57
2023-01-19T02:08:11.924Z,96.57
2023-01-19T02:09:11.910Z,96.57
2023-01-19T02:10:11.891Z,96.67
2023-01-19T02:11:11.901Z,96.78
2023-01-19T02:12:11.899Z,96.47
2023-01-19T02:13:11.915Z,96.04
2023-01-19T02:14:11.911Z,95.62
2023-01-19T02:15:11.854Z,95.83
2023-01-19T02:16:11.911Z,95.45
2023-01-19T02:17:11.859Z,95.35
2023-01-19T02:18:11.848Z,95.35
2023-01-19T02:19:11.868Z,95.60
2023-01-19T02:20:11.800Z,95.45
2023-01-19T02:21:11.828Z,95.77
2023-01-19T02:22:11.842Z,95.67
2023-01-19T02:23:11.812Z,95.77
2023-01-19T02:24:11.791Z,95.87
2023-01-19T02:25:11.772Z,95.71
2023-01-19T02:26:11.775Z,95.81
2023-01-19T02:27:11.823Z,95.60
2023-01-19T02:28:11.755Z,95.92
2023-01-19T02:29:11.744Z,96.97
2023-01-19T02:30:11.744Z,96.55
2023-01-19T02:31:11.724Z,96.45
2023-01-19T02:32:11.750Z,96.97
2023-01-19T02:33:11.722Z,96.93
2023-01-19T02:34:11.719Z,96.87
2023-01-19T02:35:11.731Z,97.08
2023-01-19T02:36:11.685Z,97.19
2023-01-19T02:37:11.727Z,96.97
2023-01-19T02:38:11.696Z,97.67
2023-01-19T02:39:11.650Z,97.67
2023-01-19T02:40:11.713Z,98.51
2023-01-19T02:41:11.637Z,98.09
2023-01-19T02:42:11.668Z,97.56
2023-01-19T02:43:11.626Z,98.72
2023-01-19T02:44:11.654Z,98.41
2023-01-19T02:45:11.623Z,98.09
2023-01-19T02:46:11.696Z,97.67
2023-01-19T02:47:11.629Z,97.88
2023-01-19T02:48:11.640Z,97.45
2023-01-19T02:49:11.613Z,97.45
2023-01-19T02:50:11.596Z,97.45
2023-01-19T02:51:11.567Z,97.56
2023-01-19T02:52:11.634Z,97.99
2023-01-19T02:53:11.569Z,97.67
2023-01-19T02:54:11.553Z,97.08
2023-01-19T02:55:11.547Z,96.81
2023-01-19T02:56:11.542Z,96.22
2023-01-19T02:57:11.547Z,95.73
2023-01-19T02:58:11.603Z,95.88
2023-01-19T02:59:11.588Z,97.25
2023-01-19T03:00:11.555Z,97.63
2023-01-19T03:01:11.596Z,97.63
2023-01-19T03:02:11.609Z,97.63
2023-01-19T03:03:11.523Z,98.37
2023-01-19T03:04:11.496Z,98.06
2023-01-19T03:05:11.483Z,97.91
2023-01-19T03:06:11.486Z,98.01
2023-01-19T03:07:11.489Z,97.69
2023-01-19T03:08:11.473Z,97.91
2023-01-19T03:09:11.456Z,98.01
2023-01-19T03:10:11.452Z,97.59
2023-01-19T03:11:11.511Z,97.80
2023-01-19T03:12:11.414Z,97.80
2023-01-19T03:13:11.446Z,98.22
2023-01-19T03:14:11.429Z,98.01
2023-01-19T03:15:11.425Z,97.65
2023-01-19T03:16:11.477Z,97.80
2023-01-19T03:17:11.400Z,97.59
2023-01-19T03:18:11.427Z,97.17
2023-01-19T03:19:11.386Z,97.69
2023-01-19T03:20:11.412Z,97.91
2023-01-19T03:21:11.365Z,97.91
2023-01-19T03:22:11.420Z,98.01
2023-01-19T03:23:11.420Z,98.33
2023-01-19T03:24:11.339Z,98.86
2023-01-19T03:25:11.325Z,98.33
2023-01-19T03:26:11.333Z,98.75
2023-01-19T03:27:11.443Z,98.22
2023-01-19T03:28:11.329Z,98.27
2023-01-19T03:29:11.302Z,98.90
2023-01-19T03:30:11.368Z,98.80
2023-01-19T03:31:11.322Z,98.69
2023-01-19T03:32:11.272Z,98.90
2023-01-19T03:33:11.329Z,99.22
2023-01-19T03:34:11.290Z,99.11
2023-01-19T03:35:11.243Z,98.75
2023-01-19T03:36:11.253Z,99.38
2023-01-19T03:37:11.269Z,99.55
2023-01-19T03:38:11.234Z,99.66
2023-01-19T03:39:11.271Z,98.92
2023-01-19T03:40:11.233Z,99.24
2023-01-19T03:41:11.209Z,99.24
2023-01-19T03:42:11.240Z,99.13
2023-01-19T03:43:11.211Z,99.13
2023-01-19T03:44:11.217Z,99.02
2023-01-19T03:45:11.195Z,99.19
2023-01-19T03:46:11.316Z,99.19
2023-01-19T03:47:11.182Z,99.40
2023-01-19T03:48:11.155Z,99.51
2023-01-19T03:49:11.227Z,98.98
2023-01-19T03:50:11.152Z,99.30
2023-01-19T03:51:11.131Z,99.08
2023-01-19T03:52:11.145Z,99.30
2023-01-19T03:53:11.994Z,98.83
2023-01-19T03:54:11.227Z,99.04
2023-01-19T03:55:11.121Z,99.15
2023-01-19T03:56:11.115Z,99.04
2023-01-19T03:57:11.118Z,99.46
2023-01-19T03:58:11.103Z,99.25
2023-01-19T03:59:11.095Z,99.31
2023-01-19T04:00:11.127Z,99.31
2023-01-19T04:01:11.215Z,99.63
2023-01-19T04:02:11.178Z,99.79
2023-01-19T04:03:11.120Z,99.64
2023-01-19T04:04:11.081Z,99.99
2023-01-19T04:05:11.082Z,99.81
2023-01-19T04:06:11.073Z,99.60
2023-01-19T04:07:11.028Z,99.76
2023-01-19T04:08:11.034Z,99.76
2023-01-19T04:09:11.017Z,99.13
2023-01-19T04:10:11.024Z,98.77
2023-01-19T04:11:11.019Z,98.98
2023-01-19T04:12:11.021Z,98.66
2023-01-19T04:13:10.974Z,98.56
2023-01-19T04:14:10.979Z,98.14
2023-01-19T04:15:11.019Z,97.99
2023-01-19T04:16:10.998Z,98.24
2023-01-19T04:17:10.945Z,97.88
2023-01-19T04:18:11.001Z,97.25
2023-01-19T04:19:10.951Z,97.36
2023-01-19T04:20:10.997Z,97.36
2023-01-19T04:21:10.927Z,97.21
2023-01-19T04:22:10.978Z,97.05
2023-01-19T04:23:10.936Z,96.79
2023-01-19T04:24:10.917Z,96.79
2023-01-19T04:25:10.962Z,96.37
2023-01-19T04:26:10.892Z,96.37
2023-01-19T04:27:10.904Z,96.47
2023-01-19T04:28:11.851Z,96.47
2023-01-19T04:29:10.864Z,95.84
2023-01-19T04:30:10.894Z,95.74
2023-01-19T04:31:10.949Z,96.26
2023-01-19T04:32:10.843Z,96.37
2023-01-19T04:33:10.821Z,96.47
2023-01-19T04:34:10.820Z,95.59
2023-01-19T04:35:10.827Z,95.59
2023-01-19T04:36:10.873Z,95.38
2023-01-19T04:37:10.844Z,95.59
2023-01-19T04:38:10.846Z,95.70
2023-01-19T04:39:10.797Z,95.70
2023-01-19T04:40:10.820Z,95.28
2023-01-19T04:41:10.841Z,95.44
2023-01-19T04:42:43.863Z,95.17
2023-01-19T04:43:10.749Z,95.38
2023-01-19T04:44:10.748Z,95.34
2023-01-19T04:45:10.739Z,95.48
2023-01-19T04:46:10.829Z,95.13
2023-01-19T04:47:10.723Z,95.28
2023-01-19T04:48:10.719Z,95.13
2023-01-19T04:49:10.705Z,95.13
2023-01-19T04:50:10.709Z,95.02
2023-01-19T04:51:10.722Z,94.81
2023-01-19T04:52:10.674Z,95.02
2023-01-19T04:53:11.695Z,94.49
2023-01-19T04:54:10.680Z,94.81
2023-01-19T04:55:10.668Z,94.92
2023-01-19T04:56:10.699Z,94.56
2023-01-19T04:57:10.661Z,94.35
2023-01-19T04:58:10.670Z,94.67
2023-01-19T04:59:10.649Z,94.92
2023-01-19T05:00:10.632Z,94.67
2023-01-19T05:01:10.711Z,94.14
2023-01-19T05:02:10.725Z,93.62
2023-01-19T05:03:10.656Z,93.62
2023-01-19T05:04:10.609Z,93.36
2023-01-19T05:05:10.599Z,93.62
2023-01-19T05:06:10.614Z,93.62
2023-01-19T05:07:10.590Z,93.51
2023-01-19T05:08:10.579Z,93.30
2023-01-19T05:09:10.574Z,92.88
2023-01-19T05:10:10.566Z,92.94
2023-01-19T05:11:10.581Z,92.99
2023-01-19T05:12:10.566Z,93.19
2023-01-19T05:13:10.541Z,93.36
2023-01-19T05:14:10.530Z,93.26
2023-01-19T05:15:10.535Z,93.62
2023-01-19T05:16:10.606Z,93.51
2023-01-19T05:17:10.509Z,93.36
2023-01-19T05:18:10.505Z,93.57
2023-01-19T05:19:10.498Z,93.36
2023-01-19T05:20:10.497Z,93.36
2023-01-19T05:21:10.512Z,93.30
2023-01-19T05:22:10.481Z,93.36
2023-01-19T05:23:10.467Z,93.15
2023-01-19T05:24:10.468Z,93.15
2023-01-19T05:25:10.473Z,93.47
2023-01-19T05:26:10.541Z,93.36
2023-01-19T05:27:10.443Z,93.26
2023-01-19T05:28:10.435Z,93.36
2023-01-19T05:29:10.436Z,92.99
2023-01-19T05:30:10.424Z,92.94
2023-01-19T05:31:10.552Z,93.15
2023-01-19T05:32:10.410Z,92.94
2023-01-19T05:33:10.395Z,92.94
2023-01-19T05:34:10.388Z,92.83
2023-01-19T05:35:10.387Z,93.05
2023-01-19T05:36:10.424Z,92.94
2023-01-19T05:37:10.376Z,93.05
2023-01-19T05:38:10.372Z,92.83
2023-01-19T05:39:10.356Z,93.15
2023-01-19T05:40:10.356Z,92.83
2023-01-19T05:41:10.371Z,93.15
2023-01-19T05:42:10.329Z,92.94
2023-01-19T05:43:10.325Z,93.05
2023-01-19T05:44:10.325Z,93.36
2023-01-19T05:45:10.315Z,93.15
2023-01-19T05:46:10.332Z,93.05
2023-01-19T05:47:10.303Z,92.94
2023-01-19T05:48:10.340Z,93.11
2023-01-19T05:49:10.287Z,93.01
2023-01-19T05:50:10.279Z,93.11
2023-01-19T05:51:10.294Z,93.21
2023-01-19T05:52:10.266Z,93.74
2023-01-19T05:53:10.260Z,93.63
2023-01-19T05:54:10.248Z,93.63
2023-01-19T05:55:10.247Z,92.69
2023-01-19T05:56:10.268Z,93.01
2023-01-19T05:57:10.230Z,93.53
2023-01-19T05:58:10.983Z,93.32
2023-01-19T05:59:10.209Z,93.74
2023-01-19T06:00:10.293Z,93.49
2023-01-19T06:01:10.273Z,93.74
2023-01-19T06:02:10.223Z,93.43
2023-01-19T06:03:10.270Z,93.63
2023-01-19T06:04:10.169Z,93.53
2023-01-19T06:05:10.172Z,93.53
2023-01-19T06:06:10.190Z,93.01
2023-01-19T06:07:10.154Z,92.69
2023-01-19T06:08:10.148Z,92.58
2023-01-19T06:09:10.150Z,92.58
2023-01-19T06:10:10.140Z,92.69
2023-01-19T06:11:10.176Z,93.11
2023-01-19T06:12:10.130Z,93.01
2023-01-19T06:13:10.122Z,93.53
2023-01-19T06:14:10.103Z,93.32
2023-01-19T06:15:10.119Z,93.32
2023-01-19T06:16:10.144Z,93.43
2023-01-19T06:17:10.094Z,93.63
2023-01-19T06:18:10.078Z,93.63
2023-01-19T06:19:10.072Z,92.69
2023-01-19T06:20:10.064Z,92.58
2023-01-19T06:21:10.059Z,93.21
2023-01-19T06:22:10.074Z,93.21
2023-01-19T06:23:10.050Z,92.54
2023-01-19T06:24:10.042Z,92.58
2023-01-19T06:25:10.028Z,93.01
2023-01-19T06:26:10.025Z,93.11
2023-01-19T06:27:10.040Z,92.69
2023-01-19T06:28:09.999Z,92.69
2023-01-19T06:29:10.009Z,93.59
2023-01-19T06:30:09.995Z,93.21
2023-01-19T06:31:10.092Z,93.63
2023-01-19T06:32:10.075Z,93.01
2023-01-19T06:33:09.972Z,92.96
2023-01-19T06:34:09.969Z,93.32
2023-01-19T06:35:09.947Z,93.49
2023-01-19T06:36:09.951Z,93.49
2023-01-19T06:37:09.975Z,93.01
2023-01-19T06:38:09.935Z,92.54
2023-01-19T06:39:09.933Z,92.65
2023-01-19T06:40:09.919Z,92.65
2023-01-19T06:41:09.912Z,92.76
2023-01-19T06:42:09.929Z,92.44
2023-01-19T06:43:09.915Z,92.65
2023-01-19T06:44:09.911Z,92.96
2023-01-19T06:45:09.892Z,92.54
2023-01-19T06:46:09.929Z,93.01
2023-01-19T06:47:15.290Z,92.54
2023-01-19T06:48:10.881Z,92.65
2023-01-19T06:49:09.875Z,92.65
2023-01-19T06:50:09.850Z,93.07
2023-01-19T06:51:09.846Z,93.17
2023-01-19T06:52:09.869Z,93.21
2023-01-19T06:53:09.828Z,93.49
2023-01-19T06:54:09.831Z,93.32
2023-01-19T06:55:09.814Z,93.49
2023-01-19T06:56:09.807Z,93.17
2023-01-19T06:57:09.822Z,93.32
2023-01-19T06:58:09.812Z,93.32
2023-01-19T06:59:09.786Z,93.21
2023-01-19T07:00:09.781Z,93.32
2023-01-19T07:01:09.917Z,93.11
2023-01-19T07:02:27.917Z,93.21
2023-01-19T07:03:11.806Z,93.17
2023-01-19T07:04:09.756Z,93.17
2023-01-19T07:05:09.755Z,93.01
2023-01-19T07:06:09.734Z,93.01
2023-01-19T07:07:09.753Z,93.01
2023-01-19T07:08:09.721Z,93.32
2023-01-19T07:09:09.721Z,93.53
2023-01-19T07:10:09.710Z,93.53
2023-01-19T07:11:22.362Z,93.74
2023-01-19T07:12:10.722Z,93.32
2023-01-19T07:13:09.694Z,93.43
2023-01-19T07:14:09.685Z,93.43
2023-01-19T07:15:09.672Z,93.21
2023-01-19T07:16:09.663Z,93.49
2023-01-19T07:17:09.683Z,93.27
2023-01-19T07:18:10.662Z,93.38
2023-01-19T07:19:09.649Z,94.06
2023-01-19T07:20:09.637Z,93.95
2023-01-19T07:21:09.634Z,93.91
2023-01-19T07:22:09.677Z,94.01
2023-01-19T07:23:09.614Z,94.12
2023-01-19T07:24:09.613Z,93.80
2023-01-19T07:25:09.639Z,93.95
2023-01-19T07:26:09.611Z,93.80
2023-01-19T07:27:09.612Z,93.91
2023-01-19T07:28:09.587Z,93.87
2023-01-19T07:29:09.576Z,94.01
2023-01-19T07:30:09.573Z,94.12
2023-01-19T07:31:09.725Z,94.60
2023-01-19T07:32:10.588Z,94.43
2023-01-19T07:33:09.545Z,94.01
2023-01-19T07:34:11.191Z,94.32
2023-01-19T07:35:09.533Z,94.32
2023-01-19T07:36:09.535Z,93.87
2023-01-19T07:37:09.566Z,93.91
2023-01-19T07:38:09.521Z,94.28
2023-01-19T07:39:09.524Z,94.01
2023-01-19T07:40:09.513Z,94.38
2023-01-19T07:41:09.499Z,94.54
2023-01-19T07:42:09.516Z,94.22
2023-01-19T07:43:09.496Z,94.70
2023-01-19T07:44:09.490Z,94.81
2023-01-19T07:45:09.469Z,94.28
2023-01-19T07:46:09.501Z,94.81
2023-01-19T07:47:09.482Z,94.60
2023-01-19T07:48:09.458Z,94.91
2023-01-19T07:49:09.447Z,94.70
2023-01-19T07:50:09.433Z,94.60
2023-01-19T07:51:12.498Z,94.91
2023-01-19T07:52:10.447Z,94.60
2023-01-19T07:53:09.413Z,94.91
2023-01-19T07:54:09.410Z,94.70
2023-01-19T07:55:09.396Z,94.49
2023-01-19T07:56:09.394Z,94.60
2023-01-19T07:57:09.405Z,94.76
2023-01-19T07:58:09.376Z,94.81
2023-01-19T07:59:09.367Z,94.28
2023-01-19T08:00:09.358Z,94.81
2023-01-19T08:01:09.490Z,93.93
2023-01-19T08:02:09.418Z,93.87
2023-01-19T08:03:09.339Z,93.82
2023-01-19T08:04:09.361Z,94.07
2023-01-19T08:05:09.328Z,93.30
2023-01-19T08:06:09.328Z,93.08
2023-01-19T08:07:09.339Z,93.19
2023-01-19T08:08:09.308Z,93.61
2023-01-19T08:09:09.288Z,93.61
2023-01-19T08:10:10.312Z,93.19
2023-01-19T08:11:09.288Z,93.40
2023-01-19T08:12:09.302Z,92.83
2023-01-19T08:13:09.281Z,92.67
2023-01-19T08:14:09.267Z,92.73
2023-01-19T08:15:09.252Z,92.94
2023-01-19T08:16:09.297Z,92.94
2023-01-19T08:17:09.267Z,93.15
2023-01-19T08:18:09.231Z,93.04
2023-01-19T08:19:09.245Z,92.83
2023-01-19T08:20:09.256Z,93.15
2023-01-19T08:21:09.226Z,93.26
2023-01-19T08:22:09.237Z,92.31
2023-01-19T08:23:09.199Z,92.27
2023-01-19T08:24:09.218Z,92.10
2023-01-19T08:25:09.182Z,92.16
2023-01-19T08:26:09.176Z,92.06
2023-01-19T08:27:09.244Z,92.06
2023-01-19T08:28:09.176Z,92.38
2023-01-19T08:29:09.172Z,91.75
2023-01-19T08:30:09.156Z,92.06
2023-01-19T08:31:20.148Z,91.81
2023-01-19T08:32:11.273Z,91.91
2023-01-19T08:33:09.121Z,91.25
2023-01-19T08:34:09.110Z,91.39
2023-01-19T08:35:09.106Z,91.03
2023-01-19T08:36:09.096Z,91.25
2023-01-19T08:37:09.120Z,90.62
2023-01-19T08:38:09.089Z,90.20
2023-01-19T08:39:09.087Z,90.52
2023-01-19T08:40:09.067Z,90.20
2023-01-19T08:41:09.063Z,90.52
2023-01-19T08:42:09.061Z,90.41
2023-01-19T08:43:09.101Z,90.52
2023-01-19T08:44:09.050Z,90.52
2023-01-19T08:45:09.028Z,89.89
2023-01-19T08:46:09.091Z,90.31
2023-01-19T08:47:09.072Z,90.47
2023-01-19T08:48:09.031Z,90.37
2023-01-19T08:49:08.994Z,90.41
2023-01-19T08:50:08.996Z,90.58
2023-01-19T08:51:08.993Z,90.68
2023-01-19T08:52:08.976Z,90.58
2023-01-19T08:53:08.998Z,90.68
2023-01-19T08:54:09.889Z,90.89
2023-01-19T08:55:08.952Z,91.00
2023-01-19T08:56:08.946Z,90.68
2023-01-19T08:57:08.938Z,90.06
2023-01-19T08:58:08.964Z,90.41
2023-01-19T08:59:11.307Z,90.58
2023-01-19T09:00:09.916Z,90.37
2023-01-19T09:01:08.951Z,90.47
2023-01-19T09:02:08.976Z,90.58
2023-01-19T09:03:08.973Z,90.78
2023-01-19T09:04:08.879Z,89.95
2023-01-19T09:05:08.883Z,90.26
2023-01-19T09:06:08.877Z,90.78
2023-01-19T09:07:08.863Z,90.68
2023-01-19T09:08:08.887Z,90.72
2023-01-19T09:09:08.843Z,90.16
2023-01-19T09:10:08.839Z,90.47
2023-01-19T09:11:08.829Z,90.37
2023-01-19T09:12:08.854Z,90.47
2023-01-19T09:13:08.852Z,90.26
2023-01-19T09:14:08.829Z,89.74
2023-01-19T09:15:08.828Z,89.84
2023-01-19T09:16:08.860Z,89.53
2023-01-19T09:17:08.784Z,89.01
2023-01-19T09:18:08.800Z,89.07
2023-01-19T09:19:08.786Z,89.18
2023-01-19T09:20:08.752Z,89.07
2023-01-19T09:21:08.748Z,88.45
2023-01-19T09:22:08.739Z,88.62
2023-01-19T09:23:08.781Z,88.62
2023-01-19T09:24:08.763Z,88.62
2023-01-19T09:25:08.748Z,88.47
2023-01-19T09:26:08.716Z,87.84
2023-01-19T09:27:08.708Z,88.32
2023-01-19T09:28:08.731Z,86.83
2023-01-19T09:29:08.707Z,86.61
2023-01-19T09:30:08.689Z,85.74
2023-01-19T09:31:08.817Z,85.22
2023-01-19T09:32:08.670Z,85.64
2023-01-19T09:33:08.685Z,85.74
2023-01-19T09:34:08.667Z,84.87
2023-01-19T09:35:08.654Z,84.70
2023-01-19T09:36:08.631Z,85.50
2023-01-19T09:37:08.628Z,85.50
2023-01-19T09:38:08.653Z,85.39
2023-01-19T09:39:08.611Z,85.60
2023-01-19T09:40:08.677Z,84.39
2023-01-19T09:41:08.598Z,85.29
2023-01-19T09:42:08.597Z,85.02
2023-01-19T09:43:08.615Z,85.08
2023-01-19T09:44:08.584Z,85.53
2023-01-19T09:45:09.920Z,85.60
2023-01-19T09:46:08.596Z,85.02
2023-01-19T09:47:08.562Z,85.64
2023-01-19T09:48:08.555Z,85.99
2023-01-19T09:49:08.570Z,85.26
2023-01-19T09:50:08.540Z,85.26
2023-01-19T09:51:08.535Z,85.61
2023-01-19T09:52:08.523Z,85.93
2023-01-19T09:53:08.516Z,85.93
2023-01-19T09:54:08.599Z,86.35
2023-01-19T09:55:08.503Z,86.55
2023-01-19T09:56:08.491Z,86.76
2023-01-19T09:57:08.492Z,86.24
2023-01-19T09:58:08.479Z,86.35
2023-01-19T09:59:08.527Z,86.59
2023-01-19T10:00:08.470Z,86.38
2023-01-19T10:01:08.620Z,86.59
2023-01-19T10:02:08.462Z,86.38
2023-01-19T10:03:08.482Z,86.38
2023-01-19T10:04:08.476Z,86.59
2023-01-19T10:05:08.426Z,86.80
2023-01-19T10:06:08.416Z,86.69
2023-01-19T10:07:08.442Z,87.12
2023-01-19T10:08:08.415Z,86.55
2023-01-19T10:09:08.439Z,86.69
2023-01-19T10:10:08.449Z,86.59
2023-01-19T10:11:08.414Z,86.28
2023-01-19T10:12:08.387Z,86.49
2023-01-19T10:13:08.363Z,86.80
2023-01-19T10:14:10.011Z,86.69
2023-01-19T10:15:08.364Z,86.80
2023-01-19T10:16:08.404Z,87.22
2023-01-19T10:17:08.342Z,86.91
2023-01-19T10:18:08.326Z,86.80
2023-01-19T10:19:08.351Z,86.91
2023-01-19T10:20:08.311Z,86.76
2023-01-19T10:21:08.304Z,86.87
2023-01-19T10:22:08.296Z,86.55
2023-01-19T10:23:08.307Z,86.55
2023-01-19T10:24:08.310Z,86.55
2023-01-19T10:25:08.276Z,86.97
2023-01-19T10:26:08.261Z,86.76
2023-01-19T10:27:08.260Z,87.18
2023-01-19T10:28:08.257Z,86.66
2023-01-19T10:29:08.652Z,86.76
2023-01-19T10:30:08.247Z,86.80
2023-01-19T10:31:08.385Z,86.80
2023-01-19T10:32:08.288Z,87.32
2023-01-19T10:33:08.231Z,88.26
2023-01-19T10:34:08.228Z,88.06
2023-01-19T10:35:08.196Z,88.06
2023-01-19T10:36:08.203Z,88.47
2023-01-19T10:37:08.266Z,89.20
2023-01-19T10:38:08.215Z,89.41
2023-01-19T10:39:08.212Z,90.14
2023-01-19T10:40:08.210Z,90.45
2023-01-19T10:41:08.149Z,91.12
2023-01-19T10:42:08.182Z,91.71
2023-01-19T10:43:40.956Z,92.16
2023-01-19T10:44:08.192Z,92.16
2023-01-19T10:45:08.214Z,92.58
2023-01-19T10:46:08.250Z,92.90
2023-01-19T10:47:08.178Z,93.77
2023-01-19T10:48:08.121Z,93.84
2023-01-19T10:49:08.125Z,94.40
2023-01-19T10:50:08.249Z,95.34
2023-01-19T10:51:08.229Z,95.13
2023-01-19T10:52:08.141Z,95.86
2023-01-19T10:53:08.181Z,96.28
2023-01-19T10:54:08.195Z,96.74
2023-01-19T10:55:08.237Z,97.01
2023-01-19T10:56:08.097Z,97.53
2023-01-19T10:57:08.176Z,97.53
2023-01-19T10:58:08.203Z,97.43
2023-01-19T10:59:08.157Z,97.68
2023-01-19T11:00:08.151Z,97.58
2023-01-19T11:01:08.176Z,98.26
2023-01-19T11:02:08.273Z,98.10
2023-01-19T11:03:08.114Z,97.89
2023-01-19T11:04:08.056Z,97.78
2023-01-19T11:05:08.247Z,97.58
2023-01-19T11:06:08.073Z,97.78
2023-01-19T11:07:08.050Z,97.78
2023-01-19T11:08:07.989Z,98.41
2023-01-19T11:09:08.032Z,98.10
2023-01-19T11:10:08.025Z,98.31
2023-01-19T11:11:08.039Z,98.37
2023-01-19T11:12:08.039Z,97.85
2023-01-19T11:13:07.981Z,97.95
2023-01-19T11:14:08.205Z,98.16
2023-01-19T11:15:08.030Z,97.85
2023-01-19T11:16:08.016Z,98.16
2023-01-19T11:17:07.972Z,97.74
2023-01-19T11:18:07.973Z,98.37
2023-01-19T11:19:08.058Z,97.85
2023-01-19T11:20:08.025Z,97.95
2023-01-19T11:21:07.920Z,97.74
2023-01-19T11:22:07.921Z,97.80
2023-01-19T11:23:07.951Z,97.70
2023-01-19T11:24:07.878Z,97.80
2023-01-19T11:25:07.900Z,98.01
2023-01-19T11:26:07.957Z,96.97
2023-01-19T11:27:07.999Z,98.01
2023-01-19T11:28:07.860Z,98.01
2023-01-19T11:29:07.817Z,97.38
2023-01-19T11:30:07.845Z,97.59
2023-01-19T11:31:07.878Z,97.38
2023-01-19T11:32:07.883Z,97.38
2023-01-19T11:33:07.844Z,96.76
2023-01-19T11:34:07.849Z,96.97
2023-01-19T11:35:07.810Z,97.07
2023-01-19T11:36:07.877Z,96.44
2023-01-19T11:37:07.797Z,96.55
2023-01-19T11:38:07.792Z,96.97
2023-01-19T11:39:07.736Z,96.97
2023-01-19T11:40:07.809Z,96.55
2023-01-19T11:41:07.815Z,96.97
2023-01-19T11:42:07.816Z,97.07
2023-01-19T11:43:07.716Z,97.28
2023-01-19T11:44:07.775Z,97.07
2023-01-19T11:45:07.783Z,97.07
2023-01-19T11:46:07.942Z,96.86
2023-01-19T11:47:07.692Z,96.66
2023-01-19T11:48:07.750Z,97.07
2023-01-19T11:49:07.749Z,97.59
2023-01-19T11:50:07.657Z,97.32
2023-01-19T11:51:07.817Z,97.28
2023-01-19T11:52:07.730Z,97.17
2023-01-19T11:53:07.684Z,97.38
2023-01-19T11:54:07.703Z,97.43
2023-01-19T11:55:07.819Z,98.11
2023-01-19T11:56:07.646Z,98.01
2023-01-19T11:57:07.613Z,97.70
2023-01-19T11:58:07.654Z,97.64
2023-01-19T11:59:07.643Z,97.59
2023-01-19T12:00:07.616Z,97.80
2023-01-19T12:01:07.668Z,98.05
2023-01-19T12:02:08.687Z,97.74
2023-01-19T12:03:07.721Z,97.70
2023-01-19T12:04:07.598Z,97.80
2023-01-19T12:05:07.618Z,97.70
2023-01-19T12:06:07.773Z,97.86
2023-01-19T12:07:07.586Z,98.01
2023-01-19T12:08:07.971Z,97.70
2023-01-19T12:09:07.533Z,98.01
2023-01-19T12:10:07.587Z,97.65
2023-01-19T12:11:07.567Z,97.86
2023-01-19T12:12:07.525Z,97.24
2023-01-19T12:13:07.525Z,97.44
2023-01-19T12:14:08.551Z,97.44
2023-01-19T12:15:07.616Z,97.13
2023-01-19T12:16:07.521Z,97.61
2023-01-19T12:17:07.549Z,96.40
2023-01-19T12:18:07.547Z,96.88
2023-01-19T12:19:07.469Z,96.36
2023-01-19T12:20:07.475Z,97.09
2023-01-19T12:21:07.481Z,96.77
2023-01-19T12:22:07.472Z,96.77
2023-01-19T12:23:07.472Z,96.92
2023-01-19T12:24:07.431Z,96.56
2023-01-19T12:25:07.446Z,96.88
2023-01-19T12:26:07.515Z,96.36
2023-01-19T12:27:07.882Z,96.36
2023-01-19T12:28:07.511Z,96.36
2023-01-19T12:29:07.497Z,95.83
2023-01-19T12:30:07.476Z,96.04
2023-01-19T12:31:07.526Z,96.15
2023-01-19T12:32:07.367Z,96.04
2023-01-19T12:33:07.412Z,95.94
2023-01-19T12:34:07.373Z,95.58
2023-01-19T12:35:07.368Z,95.94
2023-01-19T12:36:07.369Z,95.79
2023-01-19T12:37:07.428Z,95.17
2023-01-19T12:38:07.317Z,95.17
2023-01-19T12:39:07.367Z,95.43
2023-01-19T12:40:07.418Z,95.68
2023-01-19T12:41:07.285Z,94.39
2023-01-19T12:42:07.336Z,93.98
2023-01-19T12:43:07.295Z,93.77
2023-01-19T12:44:07.329Z,93.71
2023-01-19T12:45:07.317Z,93.60
2023-01-19T12:46:07.311Z,94.08
2023-01-19T12:47:07.291Z,94.33
2023-01-19T12:48:07.244Z,94.02
2023-01-19T12:49:07.244Z,94.43
2023-01-19T12:50:07.288Z,94.33
2023-01-19T12:51:07.212Z,93.91
2023-01-19T12:52:07.293Z,93.91